sensor_id;sensor_type;location;lat;lon;timestamp;P1;durP1;ratioP1;P2;durP2;ratioP2
25667;SDS011;18003;-33.830;151.202;2023-06-14T00:00:10;3.02;;;1.50;;
25667;SDS011;18003;-33.830;151.202;2023-06-14T00:02:41;1.95;;;1.75;;
25667;SDS011;18003;-33.830;151.202;2023-06-14T00:05:11;5.75;;;1.85;;
25667;SDS011;18003;-33.830;151.202;2023-06-14T00:07:41;2.65;;;1.50;;
25667;SDS011;18003;-33.830;151.202;2023-06-14T00:10:11;3.30;;;1.90;;
25667;SDS011;18003;-33.830;151.202;2023-06-14T00:12:42;2.90;;;1.80;;
25667;SDS011;18003;-33.830;151.202;2023-06-14T00:15:12;2.58;;;1.60;;
25667;SDS011;18003;-33.830;151.202;2023-06-14T00:17:42;2.20;;;2.00;;
25667;SDS011;18003;-33.830;151.202;2023-06-14T00:20:14;1.65;;;1.50;;
25667;SDS011;18003;-33.830;151.202;2023-06-14T00:22:43;1.95;;;1.80;;
25667;SDS011;18003;-33.830;151.202;2023-06-14T00:25:15;2.08;;;1.65;;
25667;SDS011;18003;-33.830;151.202;2023-06-14T00:27:45;3.37;;;1.57;;
25667;SDS011;18003;-33.830;151.202;2023-06-14T00:30:15;2.17;;;1.60;;
25667;SDS011;18003;-33.830;151.202;2023-06-14T00:32:45;1.80;;;1.30;;
25667;SDS011;18003;-33.830;151.202;2023-06-14T00:35:15;2.25;;;1.30;;
25667;SDS011;18003;-33.830;151.202;2023-06-14T00:37:45;2.65;;;1.55;;
25667;SDS011;18003;-33.830;151.202;2023-06-14T00:40:15;3.17;;;1.80;;
25667;SDS011;18003;-33.830;151.202;2023-06-14T00:42:45;1.70;;;1.30;;
25667;SDS011;18003;-33.830;151.202;2023-06-14T00:45:15;1.70;;;1.22;;
25667;SDS011;18003;-33.830;151.202;2023-06-14T00:47:45;3.35;;;1.65;;
25667;SDS011;18003;-33.830;151.202;2023-06-14T00:50:15;2.47;;;1.98;;
25667;SDS011;18003;-33.830;151.202;2023-06-14T00:52:45;2.72;;;1.50;;
25667;SDS011;18003;-33.830;151.202;2023-06-14T00:55:16;1.60;;;1.47;;
25667;SDS011;18003;-33.830;151.202;2023-06-14T00:57:48;2.37;;;1.50;;
25667;SDS011;18003;-33.830;151.202;2023-06-14T01:00:19;3.58;;;1.60;;
25667;SDS011;18003;-33.830;151.202;2023-06-14T01:02:49;2.05;;;1.85;;
25667;SDS011;18003;-33.830;151.202;2023-06-14T01:05:20;1.98;;;1.42;;
25667;SDS011;18003;-33.830;151.202;2023-06-14T01:07:56;2.25;;;1.70;;
25667;SDS011;18003;-33.830;151.202;2023-06-14T01:10:32;4.40;;;1.77;;
25667;SDS011;18003;-33.830;151.202;2023-06-14T01:13:10;2.37;;;1.60;;
25667;SDS011;18003;-33.830;151.202;2023-06-14T01:15:45;1.70;;;1.60;;
25667;SDS011;18003;-33.830;151.202;2023-06-14T01:18:16;1.70;;;1.60;;
25667;SDS011;18003;-33.830;151.202;2023-06-14T01:20:47;1.90;;;1.62;;
25667;SDS011;18003;-33.830;151.202;2023-06-14T01:23:17;2.70;;;1.80;;
25667;SDS011;18003;-33.830;151.202;2023-06-14T01:25:50;2.27;;;1.70;;
25667;SDS011;18003;-33.830;151.202;2023-06-14T01:28:21;1.98;;;1.77;;
25667;SDS011;18003;-33.830;151.202;2023-06-14T01:30:53;3.52;;;1.80;;
25667;SDS011;18003;-33.830;151.202;2023-06-14T01:33:24;3.12;;;1.65;;
25667;SDS011;18003;-33.830;151.202;2023-06-14T01:35:55;2.60;;;1.40;;
25667;SDS011;18003;-33.830;151.202;2023-06-14T01:41:07;1.65;;;1.40;;
25667;SDS011;18003;-33.830;151.202;2023-06-14T01:43:35;2.97;;;1.80;;
25667;SDS011;18003;-33.830;151.202;2023-06-14T01:46:06;2.30;;;1.62;;
25667;SDS011;18003;-33.830;151.202;2023-06-14T01:48:40;3.02;;;1.85;;
25667;SDS011;18003;-33.830;151.202;2023-06-14T01:51:14;1.97;;;1.53;;
25667;SDS011;18003;-33.830;151.202;2023-06-14T01:54:13;2.15;;;1.50;;
25667;SDS011;18003;-33.830;151.202;2023-06-14T01:56:46;2.72;;;1.70;;
25667;SDS011;18003;-33.830;151.202;2023-06-14T01:59:26;1.52;;;1.40;;
25667;SDS011;18003;-33.830;151.202;2023-06-14T02:01:58;2.20;;;1.40;;
25667;SDS011;18003;-33.830;151.202;2023-06-14T02:04:39;2.12;;;1.50;;
25667;SDS011;18003;-33.830;151.202;2023-06-14T02:07:16;2.58;;;1.50;;
25667;SDS011;18003;-33.830;151.202;2023-06-14T02:09:44;2.65;;;1.70;;
25667;SDS011;18003;-33.830;151.202;2023-06-14T02:12:14;1.50;;;1.40;;
25667;SDS011;18003;-33.830;151.202;2023-06-14T02:14:44;2.95;;;1.75;;
25667;SDS011;18003;-33.830;151.202;2023-06-14T02:17:15;2.35;;;1.50;;
25667;SDS011;18003;-33.830;151.202;2023-06-14T02:19:45;2.12;;;1.50;;
25667;SDS011;18003;-33.830;151.202;2023-06-14T02:22:15;4.90;;;1.60;;
25667;SDS011;18003;-33.830;151.202;2023-06-14T02:24:46;1.80;;;1.40;;
25667;SDS011;18003;-33.830;151.202;2023-06-14T02:27:16;1.57;;;1.40;;
25667;SDS011;18003;-33.830;151.202;2023-06-14T02:29:47;1.50;;;1.40;;
25667;SDS011;18003;-33.830;151.202;2023-06-14T02:32:22;1.80;;;1.60;;
25667;SDS011;18003;-33.830;151.202;2023-06-14T02:34:53;4.28;;;1.52;;
25667;SDS011;18003;-33.830;151.202;2023-06-14T02:37:23;1.60;;;1.50;;
25667;SDS011;18003;-33.830;151.202;2023-06-14T02:39:53;1.90;;;1.70;;
25667;SDS011;18003;-33.830;151.202;2023-06-14T02:42:24;2.12;;;1.80;;
25667;SDS011;18003;-33.830;151.202;2023-06-14T02:44:54;2.15;;;1.60;;
25667;SDS011;18003;-33.830;151.202;2023-06-14T02:47:26;2.33;;;1.70;;
25667;SDS011;18003;-33.830;151.202;2023-06-14T02:49:56;3.45;;;1.70;;
25667;SDS011;18003;-33.830;151.202;2023-06-14T02:52:30;1.87;;;1.77;;
25667;SDS011;18003;-33.830;151.202;2023-06-14T02:55:01;1.72;;;1.50;;
25667;SDS011;18003;-33.830;151.202;2023-06-14T02:57:35;3.70;;;1.50;;
25667;SDS011;18003;-33.830;151.202;2023-06-14T03:00:07;2.47;;;1.50;;
25667;SDS011;18003;-33.830;151.202;2023-06-14T03:02:39;2.15;;;1.60;;
25667;SDS011;18003;-33.830;151.202;2023-06-14T03:05:13;1.75;;;1.40;;
25667;SDS011;18003;-33.830;151.202;2023-06-14T03:08:09;1.52;;;1.27;;
25667;SDS011;18003;-33.830;151.202;2023-06-14T03:10:26;1.50;;;1.40;;
25667;SDS011;18003;-33.830;151.202;2023-06-14T03:12:56;3.85;;;1.40;;
25667;SDS011;18003;-33.830;151.202;2023-06-14T03:15:27;1.57;;;1.23;;
25667;SDS011;18003;-33.830;151.202;2023-06-14T03:17:58;1.90;;;1.35;;
25667;SDS011;18003;-33.830;151.202;2023-06-14T03:20:28;2.83;;;1.60;;
25667;SDS011;18003;-33.830;151.202;2023-06-14T03:22:59;1.80;;;1.42;;
25667;SDS011;18003;-33.830;151.202;2023-06-14T03:25:30;1.70;;;1.30;;
25667;SDS011;18003;-33.830;151.202;2023-06-14T03:28:01;1.50;;;1.40;;
25667;SDS011;18003;-33.830;151.202;2023-06-14T03:30:32;3.10;;;1.20;;
25667;SDS011;18003;-33.830;151.202;2023-06-14T03:33:02;2.22;;;1.40;;
25667;SDS011;18003;-33.830;151.202;2023-06-14T03:35:49;2.00;;;1.30;;
25667;SDS011;18003;-33.830;151.202;2023-06-14T03:38:03;2.12;;;1.35;;
25667;SDS011;18003;-33.830;151.202;2023-06-14T03:40:33;1.67;;;1.20;;
25667;SDS011;18003;-33.830;151.202;2023-06-14T03:43:06;2.87;;;1.30;;
25667;SDS011;18003;-33.830;151.202;2023-06-14T03:45:36;2.77;;;1.47;;
25667;SDS011;18003;-33.830;151.202;2023-06-14T03:48:09;1.80;;;1.10;;
25667;SDS011;18003;-33.830;151.202;2023-06-14T03:50:39;1.95;;;1.30;;
25667;SDS011;18003;-33.830;151.202;2023-06-14T03:53:11;7.17;;;1.60;;
25667;SDS011;18003;-33.830;151.202;2023-06-14T03:55:42;5.28;;;1.42;;
25667;SDS011;18003;-33.830;151.202;2023-06-14T03:58:12;3.77;;;1.50;;
25667;SDS011;18003;-33.830;151.202;2023-06-14T04:00:42;2.17;;;1.45;;
25667;SDS011;18003;-33.830;151.202;2023-06-14T04:03:16;1.60;;;1.50;;
25667;SDS011;18003;-33.830;151.202;2023-06-14T04:05:46;2.02;;;1.40;;
25667;SDS011;18003;-33.830;151.202;2023-06-14T04:08:16;2.30;;;1.00;;
25667;SDS011;18003;-33.830;151.202;2023-06-14T04:10:58;2.60;;;1.55;;
25667;SDS011;18003;-33.830;151.202;2023-06-14T04:13:32;2.12;;;1.32;;
25667;SDS011;18003;-33.830;151.202;2023-06-14T04:16:02;3.80;;;1.40;;
25667;SDS011;18003;-33.830;151.202;2023-06-14T04:18:33;2.47;;;1.40;;
25667;SDS011;18003;-33.830;151.202;2023-06-14T04:21:03;2.30;;;1.40;;
25667;SDS011;18003;-33.830;151.202;2023-06-14T04:23:38;2.20;;;1.40;;
25667;SDS011;18003;-33.830;151.202;2023-06-14T04:26:07;2.25;;;1.40;;
25667;SDS011;18003;-33.830;151.202;2023-06-14T04:28:38;7.97;;;2.27;;
25667;SDS011;18003;-33.830;151.202;2023-06-14T04:31:07;2.62;;;1.65;;
25667;SDS011;18003;-33.830;151.202;2023-06-14T04:33:38;2.92;;;1.50;;
25667;SDS011;18003;-33.830;151.202;2023-06-14T04:36:13;1.62;;;1.30;;
25667;SDS011;18003;-33.830;151.202;2023-06-14T04:38:44;3.15;;;1.70;;
25667;SDS011;18003;-33.830;151.202;2023-06-14T04:41:15;1.82;;;1.30;;
25667;SDS011;18003;-33.830;151.202;2023-06-14T04:43:45;2.40;;;1.50;;
25667;SDS011;18003;-33.830;151.202;2023-06-14T04:46:15;2.92;;;1.30;;
25667;SDS011;18003;-33.830;151.202;2023-06-14T04:48:46;3.62;;;1.32;;
25667;SDS011;18003;-33.830;151.202;2023-06-14T04:51:17;2.40;;;1.10;;
25667;SDS011;18003;-33.830;151.202;2023-06-14T04:53:47;4.40;;;1.62;;
25667;SDS011;18003;-33.830;151.202;2023-06-14T04:56:17;3.55;;;1.40;;
25667;SDS011;18003;-33.830;151.202;2023-06-14T04:58:47;2.83;;;1.30;;
25667;SDS011;18003;-33.830;151.202;2023-06-14T05:01:17;1.30;;;1.20;;
25667;SDS011;18003;-33.830;151.202;2023-06-14T05:03:48;1.62;;;1.30;;
25667;SDS011;18003;-33.830;151.202;2023-06-14T05:06:18;1.70;;;1.20;;
25667;SDS011;18003;-33.830;151.202;2023-06-14T05:08:49;2.17;;;1.60;;
25667;SDS011;18003;-33.830;151.202;2023-06-14T05:11:19;2.77;;;1.50;;
25667;SDS011;18003;-33.830;151.202;2023-06-14T05:13:50;2.22;;;1.60;;
25667;SDS011;18003;-33.830;151.202;2023-06-14T05:16:20;4.42;;;1.50;;
25667;SDS011;18003;-33.830;151.202;2023-06-14T05:18:51;2.52;;;1.32;;
25667;SDS011;18003;-33.830;151.202;2023-06-14T05:21:21;1.90;;;1.60;;
25667;SDS011;18003;-33.830;151.202;2023-06-14T05:23:52;1.62;;;1.50;;
25667;SDS011;18003;-33.830;151.202;2023-06-14T05:26:26;1.92;;;1.50;;
25667;SDS011;18003;-33.830;151.202;2023-06-14T05:28:56;2.37;;;1.50;;
25667;SDS011;18003;-33.830;151.202;2023-06-14T05:31:28;2.52;;;1.22;;
25667;SDS011;18003;-33.830;151.202;2023-06-14T05:33:58;5.67;;;1.70;;
25667;SDS011;18003;-33.830;151.202;2023-06-14T05:36:28;4.78;;;1.65;;
25667;SDS011;18003;-33.830;151.202;2023-06-14T05:38:58;5.12;;;1.62;;
25667;SDS011;18003;-33.830;151.202;2023-06-14T05:41:29;3.85;;;1.42;;
25667;SDS011;18003;-33.830;151.202;2023-06-14T05:43:59;4.65;;;1.67;;
25667;SDS011;18003;-33.830;151.202;2023-06-14T05:46:29;3.62;;;1.47;;
25667;SDS011;18003;-33.830;151.202;2023-06-14T05:48:59;2.45;;;1.50;;
25667;SDS011;18003;-33.830;151.202;2023-06-14T05:51:29;5.15;;;1.82;;
25667;SDS011;18003;-33.830;151.202;2023-06-14T05:53:59;1.95;;;1.62;;
25667;SDS011;18003;-33.830;151.202;2023-06-14T05:56:29;2.37;;;1.67;;
25667;SDS011;18003;-33.830;151.202;2023-06-14T05:58:59;3.27;;;1.60;;
25667;SDS011;18003;-33.830;151.202;2023-06-14T06:01:29;1.80;;;1.30;;
25667;SDS011;18003;-33.830;151.202;2023-06-14T06:04:00;3.90;;;1.40;;
25667;SDS011;18003;-33.830;151.202;2023-06-14T06:06:30;3.87;;;1.55;;
25667;SDS011;18003;-33.830;151.202;2023-06-14T06:09:00;3.62;;;1.62;;
25667;SDS011;18003;-33.830;151.202;2023-06-14T06:11:30;4.28;;;1.70;;
25667;SDS011;18003;-33.830;151.202;2023-06-14T06:14:00;1.32;;;1.22;;
25667;SDS011;18003;-33.830;151.202;2023-06-14T06:16:31;3.47;;;1.65;;
25667;SDS011;18003;-33.830;151.202;2023-06-14T06:19:01;3.52;;;1.65;;
25667;SDS011;18003;-33.830;151.202;2023-06-14T06:21:31;2.83;;;1.67;;
25667;SDS011;18003;-33.830;151.202;2023-06-14T06:24:01;1.98;;;1.67;;
25667;SDS011;18003;-33.830;151.202;2023-06-14T06:26:32;3.45;;;1.70;;
25667;SDS011;18003;-33.830;151.202;2023-06-14T06:29:02;5.35;;;1.40;;
25667;SDS011;18003;-33.830;151.202;2023-06-14T06:31:32;1.95;;;1.70;;
25667;SDS011;18003;-33.830;151.202;2023-06-14T06:34:02;5.28;;;2.17;;
25667;SDS011;18003;-33.830;151.202;2023-06-14T06:36:32;5.22;;;1.80;;
25667;SDS011;18003;-33.830;151.202;2023-06-14T06:39:02;3.65;;;1.90;;
25667;SDS011;18003;-33.830;151.202;2023-06-14T06:41:33;1.87;;;1.70;;
25667;SDS011;18003;-33.830;151.202;2023-06-14T06:44:04;2.02;;;1.65;;
25667;SDS011;18003;-33.830;151.202;2023-06-14T06:46:34;2.85;;;2.00;;
25667;SDS011;18003;-33.830;151.202;2023-06-14T06:49:07;4.87;;;2.90;;
25667;SDS011;18003;-33.830;151.202;2023-06-14T06:51:40;7.83;;;3.15;;
25667;SDS011;18003;-33.830;151.202;2023-06-14T06:54:10;2.52;;;2.27;;
25667;SDS011;18003;-33.830;151.202;2023-06-14T06:56:40;3.87;;;2.20;;
25667;SDS011;18003;-33.830;151.202;2023-06-14T06:59:10;3.60;;;2.47;;
25667;SDS011;18003;-33.830;151.202;2023-06-14T07:01:41;5.40;;;2.30;;
25667;SDS011;18003;-33.830;151.202;2023-06-14T07:04:11;3.15;;;2.60;;
25667;SDS011;18003;-33.830;151.202;2023-06-14T07:06:42;2.67;;;2.47;;
25667;SDS011;18003;-33.830;151.202;2023-06-14T07:09:12;3.45;;;2.20;;
25667;SDS011;18003;-33.830;151.202;2023-06-14T07:11:43;2.70;;;2.30;;
25667;SDS011;18003;-33.830;151.202;2023-06-14T07:14:13;4.05;;;2.72;;
25667;SDS011;18003;-33.830;151.202;2023-06-14T07:16:43;3.00;;;2.77;;
25667;SDS011;18003;-33.830;151.202;2023-06-14T07:19:13;3.12;;;2.80;;
25667;SDS011;18003;-33.830;151.202;2023-06-14T07:21:43;3.17;;;2.47;;
25667;SDS011;18003;-33.830;151.202;2023-06-14T07:24:13;2.90;;;2.62;;
25667;SDS011;18003;-33.830;151.202;2023-06-14T07:26:43;3.00;;;2.70;;
25667;SDS011;18003;-33.830;151.202;2023-06-14T07:29:14;2.53;;;2.33;;
25667;SDS011;18003;-33.830;151.202;2023-06-14T07:31:46;4.28;;;2.58;;
25667;SDS011;18003;-33.830;151.202;2023-06-14T07:34:16;3.12;;;2.60;;
25667;SDS011;18003;-33.830;151.202;2023-06-14T07:36:45;2.65;;;2.40;;
25667;SDS011;18003;-33.830;151.202;2023-06-14T07:39:15;2.50;;;2.30;;
25667;SDS011;18003;-33.830;151.202;2023-06-14T07:41:46;2.60;;;2.20;;
25667;SDS011;18003;-33.830;151.202;2023-06-14T07:44:16;4.35;;;2.85;;
25667;SDS011;18003;-33.830;151.202;2023-06-14T07:46:46;5.25;;;2.80;;
25667;SDS011;18003;-33.830;151.202;2023-06-14T07:49:16;2.92;;;2.62;;
25667;SDS011;18003;-33.830;151.202;2023-06-14T07:51:46;5.35;;;2.75;;
25667;SDS011;18003;-33.830;151.202;2023-06-14T07:54:17;4.42;;;3.00;;
25667;SDS011;18003;-33.830;151.202;2023-06-14T07:56:48;3.50;;;2.40;;
25667;SDS011;18003;-33.830;151.202;2023-06-14T07:59:18;3.42;;;2.47;;
25667;SDS011;18003;-33.830;151.202;2023-06-14T08:01:48;2.50;;;2.30;;
25667;SDS011;18003;-33.830;151.202;2023-06-14T08:04:18;3.95;;;2.58;;
25667;SDS011;18003;-33.830;151.202;2023-06-14T08:06:48;2.22;;;1.92;;
25667;SDS011;18003;-33.830;151.202;2023-06-14T08:09:18;2.75;;;2.20;;
25667;SDS011;18003;-33.830;151.202;2023-06-14T08:11:48;2.58;;;1.82;;
25667;SDS011;18003;-33.830;151.202;2023-06-14T08:14:18;2.65;;;1.80;;
25667;SDS011;18003;-33.830;151.202;2023-06-14T08:16:49;2.85;;;1.98;;
25667;SDS011;18003;-33.830;151.202;2023-06-14T08:19:19;2.95;;;1.80;;
25667;SDS011;18003;-33.830;151.202;2023-06-14T08:21:49;2.35;;;1.60;;
25667;SDS011;18003;-33.830;151.202;2023-06-14T08:24:21;3.47;;;1.77;;
25667;SDS011;18003;-33.830;151.202;2023-06-14T08:26:57;3.62;;;1.80;;
25667;SDS011;18003;-33.830;151.202;2023-06-14T08:29:27;4.17;;;1.85;;
25667;SDS011;18003;-33.830;151.202;2023-06-14T08:31:57;2.12;;;1.72;;
25667;SDS011;18003;-33.830;151.202;2023-06-14T08:34:28;3.83;;;1.80;;
25667;SDS011;18003;-33.830;151.202;2023-06-14T08:36:58;3.65;;;1.87;;
25667;SDS011;18003;-33.830;151.202;2023-06-14T08:39:28;2.85;;;1.70;;
25667;SDS011;18003;-33.830;151.202;2023-06-14T08:41:58;2.08;;;1.65;;
25667;SDS011;18003;-33.830;151.202;2023-06-14T08:44:30;2.80;;;2.08;;
25667;SDS011;18003;-33.830;151.202;2023-06-14T08:47:00;2.93;;;1.90;;
25667;SDS011;18003;-33.830;151.202;2023-06-14T08:49:33;3.62;;;1.90;;
25667;SDS011;18003;-33.830;151.202;2023-06-14T08:52:05;3.70;;;2.02;;
25667;SDS011;18003;-33.830;151.202;2023-06-14T08:54:37;1.87;;;1.77;;
25667;SDS011;18003;-33.830;151.202;2023-06-14T08:57:14;4.22;;;1.90;;
25667;SDS011;18003;-33.830;151.202;2023-06-14T08:59:47;4.15;;;1.90;;
25667;SDS011;18003;-33.830;151.202;2023-06-14T09:02:19;3.52;;;1.98;;
25667;SDS011;18003;-33.830;151.202;2023-06-14T09:04:49;2.22;;;1.60;;
25667;SDS011;18003;-33.830;151.202;2023-06-14T09:07:20;2.20;;;1.77;;
25667;SDS011;18003;-33.830;151.202;2023-06-14T09:10:02;2.70;;;1.80;;
25667;SDS011;18003;-33.830;151.202;2023-06-14T09:12:22;3.62;;;2.12;;
25667;SDS011;18003;-33.830;151.202;2023-06-14T09:14:52;2.70;;;1.85;;
25667;SDS011;18003;-33.830;151.202;2023-06-14T09:17:22;3.45;;;1.80;;
25667;SDS011;18003;-33.830;151.202;2023-06-14T09:19:54;2.77;;;1.77;;
25667;SDS011;18003;-33.830;151.202;2023-06-14T09:22:24;2.10;;;1.90;;
25667;SDS011;18003;-33.830;151.202;2023-06-14T09:24:54;2.80;;;1.92;;
25667;SDS011;18003;-33.830;151.202;2023-06-14T09:27:29;2.75;;;1.98;;
25667;SDS011;18003;-33.830;151.202;2023-06-14T09:29:55;2.47;;;1.80;;
25667;SDS011;18003;-33.830;151.202;2023-06-14T09:32:25;2.33;;;1.70;;
25667;SDS011;18003;-33.830;151.202;2023-06-14T09:34:56;2.00;;;1.60;;
25667;SDS011;18003;-33.830;151.202;2023-06-14T09:37:27;2.12;;;1.90;;
25667;SDS011;18003;-33.830;151.202;2023-06-14T09:40:00;3.85;;;2.02;;
25667;SDS011;18003;-33.830;151.202;2023-06-14T09:42:31;2.87;;;2.03;;
25667;SDS011;18003;-33.830;151.202;2023-06-14T09:45:03;3.02;;;1.95;;
25667;SDS011;18003;-33.830;151.202;2023-06-14T09:47:34;3.62;;;2.05;;
25667;SDS011;18003;-33.830;151.202;2023-06-14T09:50:04;3.90;;;2.30;;
25667;SDS011;18003;-33.830;151.202;2023-06-14T09:52:35;3.65;;;2.17;;
25667;SDS011;18003;-33.830;151.202;2023-06-14T09:55:07;4.40;;;2.02;;
25667;SDS011;18003;-33.830;151.202;2023-06-14T09:57:37;5.40;;;2.25;;
25667;SDS011;18003;-33.830;151.202;2023-06-14T10:00:08;4.83;;;2.62;;
25667;SDS011;18003;-33.830;151.202;2023-06-14T10:02:39;2.62;;;2.37;;
25667;SDS011;18003;-33.830;151.202;2023-06-14T10:05:12;3.98;;;2.30;;
25667;SDS011;18003;-33.830;151.202;2023-06-14T10:10:21;2.52;;;2.30;;
25667;SDS011;18003;-33.830;151.202;2023-06-14T10:12:51;3.62;;;2.20;;
25667;SDS011;18003;-33.830;151.202;2023-06-14T10:15:23;2.55;;;1.90;;
25667;SDS011;18003;-33.830;151.202;2023-06-14T10:20:30;2.75;;;1.72;;
25667;SDS011;18003;-33.830;151.202;2023-06-14T10:23:22;2.12;;;1.90;;
25667;SDS011;18003;-33.830;151.202;2023-06-14T10:25:59;2.22;;;1.67;;
25667;SDS011;18003;-33.830;151.202;2023-06-14T10:28:30;2.67;;;1.80;;
25667;SDS011;18003;-33.830;151.202;2023-06-14T10:31:09;2.27;;;1.70;;
25667;SDS011;18003;-33.830;151.202;2023-06-14T10:33:49;2.35;;;1.62;;
25667;SDS011;18003;-33.830;151.202;2023-06-14T10:36:24;2.15;;;1.52;;
25667;SDS011;18003;-33.830;151.202;2023-06-14T10:39:10;3.27;;;1.80;;
25667;SDS011;18003;-33.830;151.202;2023-06-14T10:41:55;3.35;;;1.90;;
25667;SDS011;18003;-33.830;151.202;2023-06-14T10:46:55;2.02;;;1.75;;
25667;SDS011;18003;-33.830;151.202;2023-06-14T10:52:13;3.67;;;1.82;;
25667;SDS011;18003;-33.830;151.202;2023-06-14T10:57:45;4.28;;;1.80;;
25667;SDS011;18003;-33.830;151.202;2023-06-14T11:00:24;4.35;;;2.52;;
25667;SDS011;18003;-33.830;151.202;2023-06-14T11:05:49;2.52;;;1.75;;
25667;SDS011;18003;-33.830;151.202;2023-06-14T11:11:12;2.83;;;1.77;;
25667;SDS011;18003;-33.830;151.202;2023-06-14T11:16:15;2.72;;;2.20;;
25667;SDS011;18003;-33.830;151.202;2023-06-14T11:18:46;2.72;;;1.77;;
25667;SDS011;18003;-33.830;151.202;2023-06-14T11:21:20;3.22;;;2.25;;
25667;SDS011;18003;-33.830;151.202;2023-06-14T11:23:55;3.55;;;1.98;;
25667;SDS011;18003;-33.830;151.202;2023-06-14T11:26:30;5.20;;;2.10;;
25667;SDS011;18003;-33.830;151.202;2023-06-14T11:28:57;3.62;;;3.30;;
25667;SDS011;18003;-33.830;151.202;2023-06-14T11:31:27;5.55;;;3.80;;
25667;SDS011;18003;-33.830;151.202;2023-06-14T11:33:57;5.37;;;3.50;;
25667;SDS011;18003;-33.830;151.202;2023-06-14T11:36:28;4.53;;;3.35;;
25667;SDS011;18003;-33.830;151.202;2023-06-14T11:39:07;3.90;;;3.12;;
25667;SDS011;18003;-33.830;151.202;2023-06-14T11:41:46;3.27;;;2.55;;
25667;SDS011;18003;-33.830;151.202;2023-06-14T11:44:17;2.85;;;2.50;;
25667;SDS011;18003;-33.830;151.202;2023-06-14T11:46:47;3.10;;;2.80;;
25667;SDS011;18003;-33.830;151.202;2023-06-14T11:49:20;4.67;;;2.62;;
25667;SDS011;18003;-33.830;151.202;2023-06-14T11:51:49;3.30;;;2.67;;
25667;SDS011;18003;-33.830;151.202;2023-06-14T11:54:20;4.92;;;2.72;;
25667;SDS011;18003;-33.830;151.202;2023-06-14T11:56:50;4.05;;;2.50;;
25667;SDS011;18003;-33.830;151.202;2023-06-14T11:59:20;3.77;;;2.50;;
25667;SDS011;18003;-33.830;151.202;2023-06-14T12:01:52;3.35;;;2.30;;
25667;SDS011;18003;-33.830;151.202;2023-06-14T12:04:24;4.40;;;2.52;;
25667;SDS011;18003;-33.830;151.202;2023-06-14T12:07:08;3.52;;;2.42;;
25667;SDS011;18003;-33.830;151.202;2023-06-14T12:12:27;4.15;;;2.80;;
25667;SDS011;18003;-33.830;151.202;2023-06-14T12:14:57;3.50;;;2.22;;
25667;SDS011;18003;-33.830;151.202;2023-06-14T12:17:31;3.72;;;2.40;;
25667;SDS011;18003;-33.830;151.202;2023-06-14T12:22:53;2.70;;;2.08;;
25667;SDS011;18003;-33.830;151.202;2023-06-14T12:28:05;4.70;;;2.65;;
25667;SDS011;18003;-33.830;151.202;2023-06-14T12:30:36;4.08;;;2.15;;
25667;SDS011;18003;-33.830;151.202;2023-06-14T12:33:07;2.98;;;2.10;;
25667;SDS011;18003;-33.830;151.202;2023-06-14T12:35:37;4.00;;;2.50;;
25667;SDS011;18003;-33.830;151.202;2023-06-14T12:38:08;3.65;;;2.30;;
25667;SDS011;18003;-33.830;151.202;2023-06-14T12:40:38;3.40;;;2.20;;
25667;SDS011;18003;-33.830;151.202;2023-06-14T12:43:09;3.90;;;2.05;;
25667;SDS011;18003;-33.830;151.202;2023-06-14T12:45:39;3.35;;;2.20;;
25667;SDS011;18003;-33.830;151.202;2023-06-14T12:48:10;3.17;;;2.30;;
25667;SDS011;18003;-33.830;151.202;2023-06-14T12:50:40;2.42;;;2.10;;
25667;SDS011;18003;-33.830;151.202;2023-06-14T12:53:12;3.15;;;2.33;;
25667;SDS011;18003;-33.830;151.202;2023-06-14T12:55:45;2.67;;;2.08;;
25667;SDS011;18003;-33.830;151.202;2023-06-14T12:58:13;3.95;;;2.27;;
25667;SDS011;18003;-33.830;151.202;2023-06-14T13:00:44;8.85;;;2.50;;
25667;SDS011;18003;-33.830;151.202;2023-06-14T13:03:14;3.25;;;2.20;;
25667;SDS011;18003;-33.830;151.202;2023-06-14T13:05:44;3.55;;;2.25;;
25667;SDS011;18003;-33.830;151.202;2023-06-14T13:08:14;5.35;;;2.50;;
25667;SDS011;18003;-33.830;151.202;2023-06-14T13:10:44;3.02;;;2.42;;
25667;SDS011;18003;-33.830;151.202;2023-06-14T13:13:14;3.33;;;2.40;;
25667;SDS011;18003;-33.830;151.202;2023-06-14T13:15:44;3.20;;;2.27;;
25667;SDS011;18003;-33.830;151.202;2023-06-14T13:18:15;3.92;;;2.90;;
25667;SDS011;18003;-33.830;151.202;2023-06-14T13:20:47;3.22;;;2.50;;
25667;SDS011;18003;-33.830;151.202;2023-06-14T13:23:17;5.30;;;2.60;;
25667;SDS011;18003;-33.830;151.202;2023-06-14T13:25:47;4.08;;;2.40;;
25667;SDS011;18003;-33.830;151.202;2023-06-14T13:28:17;5.37;;;2.60;;
25667;SDS011;18003;-33.830;151.202;2023-06-14T13:30:50;4.30;;;2.80;;
25667;SDS011;18003;-33.830;151.202;2023-06-14T13:33:22;3.27;;;2.45;;
25667;SDS011;18003;-33.830;151.202;2023-06-14T13:38:41;2.87;;;2.47;;
25667;SDS011;18003;-33.830;151.202;2023-06-14T13:41:11;4.90;;;2.60;;
25667;SDS011;18003;-33.830;151.202;2023-06-14T13:43:41;4.17;;;2.30;;
25667;SDS011;18003;-33.830;151.202;2023-06-14T13:46:11;4.97;;;2.50;;
25667;SDS011;18003;-33.830;151.202;2023-06-14T13:48:41;2.92;;;2.30;;
25667;SDS011;18003;-33.830;151.202;2023-06-14T13:51:13;4.72;;;2.30;;
25667;SDS011;18003;-33.830;151.202;2023-06-14T13:53:45;3.35;;;2.17;;
25667;SDS011;18003;-33.830;151.202;2023-06-14T13:56:18;4.08;;;2.33;;
25667;SDS011;18003;-33.830;151.202;2023-06-14T13:58:49;4.35;;;2.10;;
25667;SDS011;18003;-33.830;151.202;2023-06-14T14:01:22;3.00;;;2.17;;
25667;SDS011;18003;-33.830;151.202;2023-06-14T14:03:55;3.20;;;2.27;;
25667;SDS011;18003;-33.830;151.202;2023-06-14T14:06:31;3.20;;;2.50;;
25667;SDS011;18003;-33.830;151.202;2023-06-14T14:08:57;4.92;;;2.40;;
25667;SDS011;18003;-33.830;151.202;2023-06-14T14:11:28;2.62;;;2.30;;
25667;SDS011;18003;-33.830;151.202;2023-06-14T14:13:59;4.10;;;2.20;;
25667;SDS011;18003;-33.830;151.202;2023-06-14T14:16:31;3.37;;;2.17;;
25667;SDS011;18003;-33.830;151.202;2023-06-14T14:19:01;2.83;;;2.08;;
25667;SDS011;18003;-33.830;151.202;2023-06-14T14:21:37;3.12;;;2.30;;
25667;SDS011;18003;-33.830;151.202;2023-06-14T14:24:03;3.35;;;1.90;;
25667;SDS011;18003;-33.830;151.202;2023-06-14T14:26:34;4.30;;;2.20;;
25667;SDS011;18003;-33.830;151.202;2023-06-14T14:29:04;3.22;;;2.10;;
25667;SDS011;18003;-33.830;151.202;2023-06-14T14:31:34;2.90;;;2.20;;
25667;SDS011;18003;-33.830;151.202;2023-06-14T14:34:05;3.75;;;2.20;;
25667;SDS011;18003;-33.830;151.202;2023-06-14T14:36:35;3.42;;;2.20;;
25667;SDS011;18003;-33.830;151.202;2023-06-14T14:39:06;3.83;;;2.08;;
25667;SDS011;18003;-33.830;151.202;2023-06-14T14:41:37;3.55;;;2.02;;
25667;SDS011;18003;-33.830;151.202;2023-06-14T14:44:07;3.02;;;2.00;;
25667;SDS011;18003;-33.830;151.202;2023-06-14T14:46:37;3.95;;;2.30;;
25667;SDS011;18003;-33.830;151.202;2023-06-14T14:49:08;2.87;;;1.82;;
25667;SDS011;18003;-33.830;151.202;2023-06-14T14:51:39;3.12;;;1.85;;
25667;SDS011;18003;-33.830;151.202;2023-06-14T14:54:09;3.60;;;1.90;;
25667;SDS011;18003;-33.830;151.202;2023-06-14T14:56:39;3.98;;;2.00;;
25667;SDS011;18003;-33.830;151.202;2023-06-14T14:59:09;2.50;;;1.90;;
25667;SDS011;18003;-33.830;151.202;2023-06-14T15:01:39;2.95;;;2.10;;
25667;SDS011;18003;-33.830;151.202;2023-06-14T15:04:10;2.92;;;2.00;;
25667;SDS011;18003;-33.830;151.202;2023-06-14T15:06:40;3.20;;;2.08;;